CheckWX is a tool to help pilots better visualize weather data.  It is not intended as a substitute for an official pre-flight weather briefing.

19:35:48 UTC

EHEH METAR
Eindhoven Airport
Eindhoven, The Netherlands
Current

41 mins ago

EHEH 191855Z AUTO 21004KT 9999 OVC150 05/02 Q1021 BLU 22005KT 9999 FEW040 BKN150
Observed
Feb-19 @ 18:55 UTC
Wind
  • 210° at 4 KTS
Visibility
10,000+ meters
Flight Rules
VFR
Cloud Levels
  • Overcast at 15,000' AGL
  • Few at 4,000' AGL
  • Broken at 15,000' AGL
Temperature
C / 41°F
Dewpoint
C / 36°F
Humidity
81%
Altimeter
30.15" Hg
Pressure
1020.92 hPa
Previous

1 hour ago

EHEH 191825Z AUTO 22004KT 190V250 9999 OVC160 05/02 Q1020 BLU 25005KT 9999 FEW045 BKN190
Observed
Feb-19 @ 18:25 UTC
Wind
  • 220° at 4 KTS
Visibility
10,000+ meters
Flight Rules
VFR
Cloud Levels
  • Overcast at 16,000' AGL
  • Few at 4,500' AGL
  • Broken at 19,000' AGL
Temperature
C / 41°F
Dewpoint
C / 36°F
Humidity
81%
Altimeter
30.12" Hg
Pressure
1019.92 hPa
Previous

2 hours ago

EHEH 191755Z AUTO 23005KT 210V270 9999 BKN036 OVC200 05/02 Q1020 BLU 25005KT 9999 FEW045 BKN190
Observed
Feb-19 @ 17:55 UTC
Wind
  • 230° at 5 KTS
Visibility
10,000+ meters
Flight Rules
VFR
Cloud Levels
  • Broken at 3,600' AGL
  • Overcast at 20,000' AGL
  • Few at 4,500' AGL
  • Broken at 19,000' AGL
Temperature
C / 41°F
Dewpoint
C / 36°F
Humidity
81%
Altimeter
30.12" Hg
Pressure
1019.92 hPa